Terminal Aerodrome Forecast
Issued by NWS

Home | Current Version | Previous Version | Text Only | Print | Product List | Glossary On
Versions: 1 2 3 4 5 6 7 8 9 10 11 12 13 14 15 16 17 18 19
000
FTUS46 KOTX 201739
TAFCOE
TAF
KCOE 201739Z 2018/2118 17008KT P6SM -RA SCT006 OVC030
      TEMPO 2018/2020 6SM BR BKN006
     FM202200 16007KT P6SM -SHRA BKN015 OVC020
     FM210400 20005KT P6SM OVC015
     FM211000 06005KT P6SM OVC012=

USA.gov is the U.S. government's official web portal to all federal, state and local government web resources and services.